createdAt,value
2022-11-16T00:01:40.698Z,100445.13
2022-11-16T00:04:03.659Z,100443.19
2022-11-16T00:06:25.934Z,100446.47
2022-11-16T00:09:10.428Z,100445.66
2022-11-16T00:11:32.743Z,100434.97
2022-11-16T00:13:55.011Z,100440.75
2022-11-16T00:16:18.188Z,100438.53
2022-11-16T00:18:40.429Z,100442.91
2022-11-16T00:21:04.417Z,100443.41
2022-11-16T00:23:26.660Z,100447.25
2022-11-16T00:25:49.124Z,100447.81
2022-11-16T00:28:11.393Z,100450.53
2022-11-16T00:30:33.631Z,100442.00
2022-11-16T00:32:55.912Z,100446.25
2022-11-16T00:35:18.147Z,100442.38
2022-11-16T00:37:40.451Z,100445.66
2022-11-16T00:40:02.708Z,100439.25
2022-11-16T00:42:24.966Z,100442.91
2022-11-16T00:44:47.196Z,100436.59
2022-11-16T00:47:09.506Z,100447.25
2022-11-16T00:49:31.737Z,100447.81
2022-11-16T00:51:53.986Z,100445.06
2022-11-16T00:54:16.239Z,100446.47
2022-11-16T00:56:39.095Z,100443.41
2022-11-16T00:59:01.326Z,100446.66
2022-11-16T01:01:23.636Z,100449.72
2022-11-16T01:03:46.175Z,100452.16
2022-11-16T01:06:11.308Z,100463.13
2022-11-16T01:08:34.299Z,100474.88
2022-11-16T01:11:16.773Z,100478.13
2022-11-16T01:13:39.062Z,100479.44
2022-11-16T01:16:01.357Z,100473.69
2022-11-16T01:18:23.661Z,100465.44
2022-11-16T01:20:45.912Z,100461.88
2022-11-16T01:23:08.163Z,100452.31
2022-11-16T01:25:30.429Z,100451.78
2022-11-16T01:27:52.802Z,100455.06
2022-11-16T01:30:15.259Z,100439.41
2022-11-16T01:32:37.587Z,100445.19
2022-11-16T01:34:59.822Z,100445.19
2022-11-16T01:37:22.077Z,100445.19
2022-11-16T01:39:44.324Z,100446.28
2022-11-16T01:42:06.580Z,100432.88
2022-11-16T01:44:31.532Z,100435.63
2022-11-16T01:46:53.870Z,100432.28
2022-11-16T01:49:18.440Z,100433.09
2022-11-16T01:51:42.026Z,100430.88
2022-11-16T01:54:06.160Z,100423.72
2022-11-16T01:56:28.888Z,100421.81
2022-11-16T01:58:51.455Z,100423.44
2022-11-16T02:01:13.794Z,100419.06
2022-11-16T02:03:39.109Z,100417.66
2022-11-16T02:06:16.207Z,100417.66
2022-11-16T02:09:18.990Z,100422.84
2022-11-16T02:12:00.265Z,100414.72
2022-11-16T02:14:25.359Z,100413.78
2022-11-16T02:17:07.845Z,100416.84
2022-11-16T02:19:38.643Z,100416.25
2022-11-16T02:22:37.791Z,100410.53
2022-11-16T02:25:33.940Z,100402.53
2022-11-16T02:28:35.007Z,100405.78
2022-11-16T02:30:58.101Z,100408.31
2022-11-16T02:33:22.365Z,100409.94
2022-11-16T02:35:47.102Z,100409.13
2022-11-16T02:38:12.266Z,100393.25
2022-11-16T02:40:35.259Z,100392.22
2022-11-16T02:43:04.300Z,100394.38
2022-11-16T02:45:28.759Z,100385.41
2022-11-16T02:47:51.233Z,100395.06
2022-11-16T02:50:18.076Z,100384.31
2022-11-16T02:52:40.286Z,100398.81
2022-11-16T02:55:02.517Z,100380.19
2022-11-16T02:57:33.799Z,100384.16
2022-11-16T02:59:56.519Z,100384.47
2022-11-16T03:02:43.786Z,100379.69
2022-11-16T03:05:13.582Z,100383.75
2022-11-16T03:07:40.923Z,100389.56
2022-11-16T03:10:03.192Z,100399.63
2022-11-16T03:12:27.123Z,100397.72
2022-11-16T03:14:54.173Z,100395.19
2022-11-16T03:17:26.251Z,100397.94
2022-11-16T03:20:10.435Z,100390.19
2022-11-16T03:22:44.541Z,100387.44
2022-11-16T03:25:07.224Z,100391.84
2022-11-16T03:27:38.426Z,100382.28
2022-11-16T03:30:06.601Z,100391.63
2022-11-16T03:32:32.771Z,100381.97
2022-11-16T03:34:57.892Z,100380.56
2022-11-16T03:37:20.371Z,100385.25
2022-11-16T03:39:42.596Z,100380.34
2022-11-16T03:42:07.678Z,100375.75
2022-11-16T03:44:29.886Z,100373.53
2022-11-16T03:46:52.219Z,100380.63
2022-11-16T03:49:14.498Z,100372.72
2022-11-16T03:51:36.926Z,100371.91
2022-11-16T03:53:59.137Z,100370.97
2022-11-16T03:56:21.402Z,100363.88
2022-11-16T03:58:43.593Z,100365.59
2022-11-16T04:01:06.079Z,100367.50
2022-11-16T04:03:28.380Z,100363.66
2022-11-16T04:06:08.917Z,100348.09
2022-11-16T04:08:49.763Z,100351.66
2022-11-16T04:11:31.977Z,100357.47
2022-11-16T04:14:12.756Z,100361.59
2022-11-16T04:16:53.609Z,100354.41
2022-11-16T04:19:34.301Z,100355.50
2022-11-16T04:22:20.608Z,100351.66
2022-11-16T04:24:44.281Z,100349.50
2022-11-16T04:27:27.478Z,100346.16
2022-11-16T04:29:49.641Z,100342.38
2022-11-16T04:32:30.440Z,100355.00
2022-11-16T04:35:11.248Z,100350.53
2022-11-16T04:37:51.935Z,100351.97
2022-11-16T04:40:18.111Z,100352.25
2022-11-16T04:42:40.322Z,100345.66
2022-11-16T04:45:20.939Z,100346.25
2022-11-16T04:47:43.208Z,100342.78
2022-11-16T04:50:05.901Z,100334.84
2022-11-16T04:52:28.115Z,100338.69
2022-11-16T04:54:50.337Z,100335.44
2022-11-16T04:57:12.580Z,100340.34
2022-11-16T04:59:34.797Z,100341.97
2022-11-16T05:02:09.024Z,100338.31
2022-11-16T05:04:31.221Z,100335.34
2022-11-16T05:06:53.449Z,100340.56
2022-11-16T05:09:15.709Z,100336.59
2022-11-16T05:11:37.946Z,100332.75
2022-11-16T05:14:00.207Z,100332.44
2022-11-16T05:16:22.467Z,100327.78
2022-11-16T05:18:44.703Z,100329.63
2022-11-16T05:21:06.917Z,100330.63
2022-11-16T05:23:47.968Z,100325.97
2022-11-16T05:26:10.186Z,100324.31
2022-11-16T05:28:32.734Z,100327.97
2022-11-16T05:30:55.233Z,100325.75
2022-11-16T05:33:18.657Z,100324.63
2022-11-16T05:35:40.944Z,100327.66
2022-11-16T05:38:03.160Z,100325.47
2022-11-16T05:40:25.372Z,100328.50
2022-11-16T05:42:47.577Z,100329.03
2022-11-16T05:45:10.276Z,100326.56
2022-11-16T05:47:33.480Z,100332.56
2022-11-16T05:49:55.693Z,100329.81
2022-11-16T05:51:57.630Z,100319.75
2022-11-16T05:54:00.956Z,100323.31
2022-11-16T05:56:03.029Z,100315.59
2022-11-16T05:58:05.530Z,100310.41
2022-11-16T06:00:08.376Z,100317.81
2022-11-16T06:02:28.549Z,100310.41
2022-11-16T06:04:49.126Z,100316.47
2022-11-16T06:07:11.382Z,100311.50
2022-11-16T06:09:33.667Z,100305.72
2022-11-16T06:11:55.942Z,100313.94
2022-11-16T06:14:18.160Z,100314.16
2022-11-16T06:16:40.396Z,100301.56
2022-11-16T06:19:02.611Z,100306.03
2022-11-16T06:21:24.849Z,100312.94
2022-11-16T06:23:47.090Z,100306.03
2022-11-16T06:26:09.407Z,100310.41
2022-11-16T06:28:31.877Z,100308.47
2022-11-16T06:30:54.357Z,100308.06
2022-11-16T06:33:16.707Z,100311.50
2022-11-16T06:35:38.919Z,100308.25
2022-11-16T06:38:01.203Z,100307.66
2022-11-16T06:40:23.435Z,100310.97
2022-11-16T06:42:46.769Z,100294.22
2022-11-16T06:45:09.327Z,100309.28
2022-11-16T06:47:31.788Z,100307.66
2022-11-16T06:49:53.996Z,100306.53
2022-11-16T06:52:16.215Z,100306.31
2022-11-16T06:54:38.435Z,100313.72
2022-11-16T06:57:00.830Z,100318.13
2022-11-16T06:59:23.084Z,100317.28
2022-11-16T07:01:45.310Z,100314.66
2022-11-16T07:04:12.097Z,100318.22
2022-11-16T07:06:34.383Z,100323.69
2022-11-16T07:08:56.644Z,100309.38
2022-11-16T07:11:20.267Z,100315.38
2022-11-16T07:13:42.572Z,100313.72
2022-11-16T07:16:09.084Z,100308.78
2022-11-16T07:18:35.481Z,100301.44
2022-11-16T07:20:58.032Z,100310.97
2022-11-16T07:23:20.326Z,100301.03
2022-11-16T07:25:42.563Z,100306.03
2022-11-16T07:28:06.343Z,100301.56
2022-11-16T07:30:28.652Z,100298.00
2022-11-16T07:32:50.877Z,100305.50
2022-11-16T07:35:13.089Z,100298.63
2022-11-16T07:37:35.302Z,100311.41
2022-11-16T07:39:57.555Z,100311.41
2022-11-16T07:42:19.774Z,100296.69
2022-11-16T07:44:42.002Z,100306.47
2022-11-16T07:47:04.560Z,100299.94
2022-11-16T07:49:26.775Z,100314.16
2022-11-16T07:51:49.015Z,100313.16
2022-11-16T07:54:14.683Z,100306.31
2022-11-16T07:56:36.875Z,100313.22
2022-11-16T07:58:59.600Z,100312.41
2022-11-16T08:01:21.855Z,100315.69
2022-11-16T08:03:44.713Z,100310.41
2022-11-16T08:06:26.941Z,100315.59
2022-11-16T08:08:52.430Z,100314.06
2022-11-16T08:11:19.101Z,100310.69
2022-11-16T08:13:41.427Z,100311.50
2022-11-16T08:16:05.157Z,100309.88
2022-11-16T08:18:27.668Z,100303.19
2022-11-16T08:20:49.887Z,100312.84
2022-11-16T08:23:12.171Z,100321.06
2022-11-16T08:25:34.428Z,100324.03
2022-11-16T08:27:56.641Z,100328.41
2022-11-16T08:30:18.994Z,100321.91
2022-11-16T08:32:42.225Z,100330.94
2022-11-16T08:35:04.888Z,100327.88
2022-11-16T08:38:30.918Z,100322.94
2022-11-16T08:40:55.424Z,100329.41
2022-11-16T08:43:17.631Z,100325.56
2022-11-16T08:45:39.845Z,100313.47
2022-11-16T08:48:04.984Z,100311.63
2022-11-16T08:50:27.243Z,100312.13
2022-11-16T08:52:49.634Z,100318.66
2022-11-16T08:55:13.998Z,100321.19
2022-11-16T08:57:36.500Z,100320.69
2022-11-16T08:59:58.769Z,100323.53
2022-11-16T09:02:25.602Z,100322.28
2022-11-16T09:04:48.023Z,100323.09
2022-11-16T09:07:10.412Z,100335.13
2022-11-16T09:09:32.718Z,100332.88
2022-11-16T09:11:55.448Z,100323.81
2022-11-16T09:14:17.678Z,100321.47
2022-11-16T09:16:40.473Z,100324.72
2022-11-16T09:19:02.766Z,100320.44
2022-11-16T09:21:28.355Z,100313.94
2022-11-16T09:23:50.962Z,100316.06
2022-11-16T09:26:13.843Z,100307.84
2022-11-16T09:28:36.502Z,100318.22
2022-11-16T09:31:01.091Z,100312.19
2022-11-16T09:33:23.339Z,100313.00
2022-11-16T09:35:47.121Z,100305.91
2022-11-16T09:38:10.116Z,100312.63
2022-11-16T09:40:37.462Z,100314.34
2022-11-16T09:43:10.699Z,100315.69
2022-11-16T09:45:41.765Z,100319.75
2022-11-16T09:48:04.231Z,100309.00
2022-11-16T09:50:46.880Z,100301.47
2022-11-16T09:53:14.744Z,100296.25
2022-11-16T09:55:51.399Z,100304.81
2022-11-16T09:58:16.374Z,100307.06
2022-11-16T10:00:38.695Z,100310.59
2022-11-16T10:03:05.904Z,100304.22
2022-11-16T10:05:46.638Z,100298.63
2022-11-16T10:08:18.693Z,100300.25
2022-11-16T10:11:14.371Z,100296.69
2022-11-16T10:13:43.643Z,100294.75
2022-11-16T10:16:23.911Z,100297.72
2022-11-16T10:19:03.595Z,100291.41
2022-11-16T10:21:44.064Z,100290.38
2022-11-16T10:24:19.063Z,100290.59
2022-11-16T10:27:17.881Z,100288.88
2022-11-16T10:29:57.454Z,100286.34
2022-11-16T10:32:31.009Z,100284.69
2022-11-16T10:34:57.169Z,100283.28
2022-11-16T10:37:19.708Z,100280.72
2022-11-16T10:39:42.009Z,100281.56
2022-11-16T10:42:07.745Z,100283.81
2022-11-16T10:44:38.904Z,100280.75
2022-11-16T10:47:03.553Z,100278.72
2022-11-16T10:49:31.005Z,100286.94
2022-11-16T10:51:53.256Z,100286.53
2022-11-16T10:54:16.293Z,100278.50
2022-11-16T10:56:40.512Z,100280.22
2022-11-16T10:59:09.168Z,100275.94
2022-11-16T11:01:31.376Z,100279.19
2022-11-16T11:03:53.581Z,100276.97
2022-11-16T11:06:26.132Z,100283.06
2022-11-16T11:08:48.381Z,100283.47
2022-11-16T11:11:37.268Z,100284.50
2022-11-16T11:14:04.512Z,100286.41
2022-11-16T11:16:27.436Z,100290.16
2022-11-16T11:18:51.469Z,100287.25
2022-11-16T11:21:21.018Z,100289.47
2022-11-16T11:23:24.866Z,100291.81
2022-11-16T11:25:56.322Z,100287.31
2022-11-16T11:28:32.790Z,100297.47
2022-11-16T11:31:01.078Z,100296.16
2022-11-16T11:33:24.262Z,100287.94
2022-11-16T11:35:46.517Z,100289.56
2022-11-16T11:38:13.813Z,100292.81
2022-11-16T11:40:36.285Z,100295.13
2022-11-16T11:42:59.372Z,100292.97
2022-11-16T11:45:24.044Z,100298.28
2022-11-16T11:47:59.089Z,100295.44
2022-11-16T11:50:44.661Z,100301.31
2022-11-16T11:53:22.185Z,100297.25
2022-11-16T11:55:44.461Z,100303.97
2022-11-16T11:58:06.695Z,100302.75
2022-11-16T12:00:34.747Z,100311.88
2022-11-16T12:03:25.228Z,100303.63
2022-11-16T12:05:56.982Z,100303.13
2022-11-16T12:08:43.542Z,100300.88
2022-11-16T12:11:05.636Z,100296.09
2022-11-16T12:13:33.997Z,100295.06
2022-11-16T12:16:06.798Z,100287.88
2022-11-16T12:18:51.575Z,100286.84
2022-11-16T12:21:28.941Z,100296.38
2022-11-16T12:24:06.742Z,100295.56
2022-11-16T12:26:31.843Z,100300.78
2022-11-16T12:29:19.269Z,100290.00
2022-11-16T12:31:53.617Z,100292.94
2022-11-16T12:34:53.471Z,100295.88
2022-11-16T12:37:39.673Z,100284.78
2022-11-16T12:40:20.510Z,100284.97
2022-11-16T12:42:51.701Z,100285.56
2022-11-16T12:45:32.226Z,100287.19
2022-11-16T12:48:00.689Z,100282.09
2022-11-16T12:51:01.442Z,100293.56
2022-11-16T12:53:27.894Z,100290.38
2022-11-16T12:56:15.433Z,100284.91
2022-11-16T12:59:05.942Z,100281.66
2022-11-16T13:01:45.704Z,100292.06
2022-11-16T13:04:11.012Z,100280.38
2022-11-16T13:06:57.282Z,100286.47
2022-11-16T13:09:24.941Z,100288.84
2022-11-16T13:11:50.152Z,100291.50
2022-11-16T13:14:25.113Z,100285.03
2022-11-16T13:16:47.836Z,100295.00
2022-11-16T13:19:11.845Z,100283.00
2022-11-16T13:22:00.061Z,100294.09
2022-11-16T13:24:25.101Z,100283.22
2022-11-16T13:27:17.291Z,100281.94
2022-11-16T13:29:51.343Z,100281.06
2022-11-16T13:32:19.544Z,100286.03
2022-11-16T13:34:41.790Z,100285.06
2022-11-16T13:37:39.367Z,100284.03
2022-11-16T13:40:01.490Z,100289.22
2022-11-16T13:42:23.706Z,100278.94
2022-11-16T13:44:51.279Z,100280.63
2022-11-16T13:47:32.713Z,100284.47
2022-11-16T13:49:56.743Z,100278.63
2022-11-16T13:52:23.552Z,100284.81
2022-11-16T13:54:53.255Z,100281.34
2022-11-16T13:57:26.959Z,100291.66
2022-11-16T13:59:49.883Z,100281.06
2022-11-16T14:02:35.088Z,100273.22
2022-11-16T14:05:00.856Z,100273.00
2022-11-16T14:07:47.416Z,100274.44
2022-11-16T14:10:10.895Z,100275.63
2022-11-16T14:12:39.069Z,100283.47
2022-11-16T14:15:15.704Z,100281.31
2022-11-16T14:17:54.127Z,100286.06
2022-11-16T14:20:30.031Z,100280.63
2022-11-16T14:23:37.288Z,100291.66
2022-11-16T14:26:30.207Z,100278.03
2022-11-16T14:29:27.679Z,100286.84
2022-11-16T14:31:57.730Z,100291.78
2022-11-16T14:34:22.496Z,100282.47
2022-11-16T14:36:45.577Z,100283.31
2022-11-16T14:39:29.077Z,100279.56
2022-11-16T14:41:51.314Z,100282.34
2022-11-16T14:44:13.516Z,100277.19
2022-11-16T14:46:35.993Z,100272.91
2022-11-16T14:48:58.321Z,100271.81
2022-11-16T14:51:32.060Z,100282.44
2022-11-16T14:53:59.612Z,100276.19
2022-11-16T14:56:21.877Z,100275.88
2022-11-16T14:58:57.695Z,100275.16
2022-11-16T15:01:20.834Z,100283.44
2022-11-16T15:03:58.475Z,100273.16
2022-11-16T15:06:20.840Z,100264.13
2022-11-16T15:08:45.032Z,100260.78
2022-11-16T15:11:08.032Z,100266.28
2022-11-16T15:13:30.279Z,100265.53
2022-11-16T15:16:18.593Z,100272.34
2022-11-16T15:18:40.799Z,100270.09
2022-11-16T15:21:03.377Z,100264.44
2022-11-16T15:23:30.488Z,100271.34
2022-11-16T15:25:54.815Z,100258.47
2022-11-16T15:28:18.749Z,100265.88
2022-11-16T15:30:40.997Z,100269.50
2022-11-16T15:33:08.069Z,100266.69
2022-11-16T15:35:34.633Z,100271.34
2022-11-16T15:38:09.541Z,100274.16
2022-11-16T15:40:32.435Z,100278.06
2022-11-16T15:42:55.055Z,100273.97
2022-11-16T15:45:24.798Z,100281.03
2022-11-16T15:47:47.295Z,100282.09
2022-11-16T15:50:17.288Z,100283.19
2022-11-16T15:52:51.108Z,100267.47
2022-11-16T15:55:31.848Z,100269.97
2022-11-16T15:58:02.186Z,100286.59
2022-11-16T16:00:25.190Z,100284.47
2022-11-16T16:04:05.186Z,100272.38
2022-11-16T16:07:02.724Z,100279.22
2022-11-16T16:09:38.849Z,100277.63
2022-11-16T16:12:23.696Z,100282.25
2022-11-16T16:14:46.696Z,100285.22
2022-11-16T16:17:09.656Z,100292.34
2022-11-16T16:19:43.665Z,100295.66
2022-11-16T16:22:15.385Z,100283.63
2022-11-16T16:24:44.336Z,100290.53
2022-11-16T16:27:18.698Z,100304.47
2022-11-16T16:29:41.053Z,100297.31
2022-11-16T16:32:03.470Z,100307.75
2022-11-16T16:34:25.797Z,100306.91
2022-11-16T16:36:48.117Z,100323.28
2022-11-16T16:39:10.423Z,100323.59
2022-11-16T16:41:32.725Z,100323.38
2022-11-16T16:43:55.022Z,100325.31
2022-11-16T16:46:17.394Z,100327.81
2022-11-16T16:48:44.491Z,100312.53
2022-11-16T16:51:09.564Z,100331.44
2022-11-16T16:53:32.169Z,100332.22
2022-11-16T16:55:54.637Z,100329.56
2022-11-16T16:58:17.016Z,100332.63
2022-11-16T17:00:39.822Z,100321.44
2022-11-16T17:03:02.330Z,100320.63
2022-11-16T17:05:26.332Z,100328.84
2022-11-16T17:07:48.684Z,100332.66
2022-11-16T17:10:10.960Z,100338.66
2022-11-16T17:12:33.329Z,100346.88
2022-11-16T17:14:55.671Z,100337.59
2022-11-16T17:17:21.675Z,100341.13
2022-11-16T17:19:43.980Z,100338.13
2022-11-16T17:22:06.308Z,100340.56
2022-11-16T17:24:28.647Z,100345.78
2022-11-16T17:26:50.985Z,100345.22
2022-11-16T17:29:13.261Z,100335.97
2022-11-16T17:31:36.361Z,100337.09
2022-11-16T17:33:58.820Z,100342.25
2022-11-16T17:36:21.120Z,100337.91
2022-11-16T17:38:43.458Z,100345.81
2022-11-16T17:41:14.016Z,100339.00
2022-11-16T17:43:36.812Z,100334.63
2022-11-16T17:46:19.226Z,100355.06
2022-11-16T17:48:43.329Z,100348.81
2022-11-16T17:51:06.151Z,100345.28
2022-11-16T17:53:32.670Z,100338.47
2022-11-16T17:55:55.380Z,100346.66
2022-11-16T17:58:17.700Z,100342.25
2022-11-16T18:00:40.217Z,100336.22
2022-11-16T18:03:02.575Z,100340.34
2022-11-16T18:05:24.933Z,100334.91
2022-11-16T18:07:47.211Z,100335.19
2022-11-16T18:10:11.104Z,100337.09
2022-11-16T18:12:36.077Z,100342.53
2022-11-16T18:15:26.525Z,100331.06
2022-11-16T18:17:40.700Z,100332.66
2022-11-16T18:20:04.870Z,100329.69
2022-11-16T18:22:27.236Z,100336.47
2022-11-16T18:24:50.832Z,100338.13
2022-11-16T18:27:13.116Z,100339.50
2022-11-16T18:29:36.886Z,100333.75
2022-11-16T18:31:59.245Z,100338.38
2022-11-16T18:34:21.565Z,100341.38
2022-11-16T18:36:44.145Z,100338.94
2022-11-16T18:39:07.015Z,100353.13
2022-11-16T18:41:29.385Z,100346.03
2022-11-16T18:43:53.419Z,100343.03
2022-11-16T18:46:16.033Z,100336.75
2022-11-16T18:48:39.688Z,100342.47
2022-11-16T18:51:03.160Z,100335.66
2022-11-16T18:53:26.347Z,100327.47
2022-11-16T18:55:57.862Z,100330.75
2022-11-16T18:58:48.595Z,100323.66
2022-11-16T19:01:04.702Z,100324.47
2022-11-16T19:03:27.097Z,100328.84
2022-11-16T19:05:57.843Z,100331.28
2022-11-16T19:08:20.145Z,100336.75
2022-11-16T19:10:42.442Z,100339.50
2022-11-16T19:13:05.666Z,100340.56
2022-11-16T19:15:28.004Z,100335.41
2022-11-16T19:18:19.468Z,100340.03
2022-11-16T19:20:32.607Z,100339.22
2022-11-16T19:22:54.917Z,100342.19
2022-11-16T19:25:17.229Z,100334.25
2022-11-16T19:27:39.518Z,100334.31
2022-11-16T19:30:01.832Z,100341.69
2022-11-16T19:32:24.623Z,100339.78
2022-11-16T19:34:46.938Z,100330.75
2022-11-16T19:37:09.285Z,100337.31
2022-11-16T19:39:31.580Z,100337.56
2022-11-16T19:41:53.859Z,100334.53
2022-11-16T19:44:16.192Z,100332.66
2022-11-16T19:46:38.485Z,100327.19
2022-11-16T19:49:01.114Z,100335.41
2022-11-16T19:51:26.010Z,100328.84
2022-11-16T19:53:48.496Z,100332.38
2022-11-16T19:56:12.357Z,100328.28
2022-11-16T19:58:35.000Z,100320.34
2022-11-16T20:01:26.214Z,100318.41
2022-11-16T20:03:49.303Z,100331.25
2022-11-16T20:06:19.980Z,100327.72
2022-11-16T20:08:43.247Z,100318.41
2022-11-16T20:11:13.717Z,100326.63
2022-11-16T20:13:38.440Z,100334.25
2022-11-16T20:16:02.122Z,100338.91
2022-11-16T20:18:24.558Z,100325.78
2022-11-16T20:20:46.868Z,100330.97
2022-11-16T20:23:09.200Z,100325.00
2022-11-16T20:25:31.548Z,100333.19
2022-11-16T20:27:53.874Z,100333.69
2022-11-16T20:30:16.743Z,100326.59
2022-11-16T20:32:39.021Z,100322.78
2022-11-16T20:35:01.314Z,100336.44
2022-11-16T20:37:23.630Z,100333.66
2022-11-16T20:39:52.566Z,100337.50
2022-11-16T20:42:14.889Z,100341.28
2022-11-16T20:44:37.287Z,100338.81
2022-11-16T20:46:59.571Z,100338.00
2022-11-16T20:49:21.874Z,100339.38
2022-11-16T20:51:46.975Z,100331.47
2022-11-16T20:54:09.343Z,100336.16
2022-11-16T20:56:31.751Z,100335.81
2022-11-16T20:58:54.149Z,100342.38
2022-11-16T21:01:33.322Z,100344.28
2022-11-16T21:04:03.352Z,100339.63
2022-11-16T21:06:25.808Z,100340.72
2022-11-16T21:08:48.165Z,100342.38
2022-11-16T21:11:25.224Z,100344.28
2022-11-16T21:14:06.120Z,100342.66
2022-11-16T21:16:28.435Z,100348.38
2022-11-16T21:18:50.762Z,100345.66
2022-11-16T21:21:13.392Z,100347.31
2022-11-16T21:23:36.491Z,100346.19
2022-11-16T21:26:08.725Z,100329.25
2022-11-16T21:28:31.023Z,100323.25
2022-11-16T21:31:01.626Z,100333.66
2022-11-16T21:33:24.017Z,100320.81
2022-11-16T21:35:46.362Z,100318.88
2022-11-16T21:38:08.671Z,100317.81
2022-11-16T21:40:30.943Z,100321.91
2022-11-16T21:42:53.209Z,100319.44
2022-11-16T21:45:15.557Z,100321.91
2022-11-16T21:47:37.836Z,100320.25
2022-11-16T21:50:30.197Z,100327.06
2022-11-16T21:52:42.401Z,100327.63
2022-11-16T21:55:05.180Z,100325.72
2022-11-16T21:57:27.547Z,100332.25
2022-11-16T21:59:49.856Z,100328.13
2022-11-16T22:02:12.267Z,100332.81
2022-11-16T22:04:53.220Z,100320.56
2022-11-16T22:07:34.014Z,100328.50
2022-11-16T22:09:56.362Z,100334.22
2022-11-16T22:12:18.694Z,100343.72
2022-11-16T22:14:41.019Z,100352.78
2022-11-16T22:17:03.348Z,100346.19
2022-11-16T22:19:25.660Z,100336.09
2022-11-16T22:21:47.978Z,100345.09
2022-11-16T22:24:10.349Z,100339.63
2022-11-16T22:26:32.793Z,100349.47
2022-11-16T22:28:55.240Z,100348.38
2022-11-16T22:31:17.598Z,100347.00
2022-11-16T22:33:40.229Z,100338.53
2022-11-16T22:36:02.956Z,100330.91
2022-11-16T22:38:25.337Z,100326.78
2022-11-16T22:40:55.387Z,100330.88
2022-11-16T22:43:21.913Z,100322.41
2022-11-16T22:45:44.219Z,100324.13
2022-11-16T22:48:06.737Z,100329.56
2022-11-16T22:50:29.068Z,100320.50
2022-11-16T22:52:51.418Z,100323.78
2022-11-16T22:55:13.741Z,100334.44
2022-11-16T22:57:36.097Z,100334.72
2022-11-16T22:59:58.430Z,100322.16
2022-11-16T23:02:20.795Z,100326.53
2022-11-16T23:04:43.097Z,100329.25
2022-11-16T23:07:05.503Z,100321.34
2022-11-16T23:09:27.897Z,100318.03
2022-11-16T23:12:09.182Z,100314.53
2022-11-16T23:14:50.214Z,100318.34
2022-11-16T23:17:12.547Z,100320.75
2022-11-16T23:19:53.486Z,100309.31
2022-11-16T23:22:36.736Z,100316.66
2022-11-16T23:25:17.805Z,100324.13
2022-11-16T23:27:50.511Z,100320.50
2022-11-16T23:30:13.554Z,100320.00
2022-11-16T23:32:36.124Z,100330.34
2022-11-16T23:34:58.443Z,100327.06
2022-11-16T23:37:20.818Z,100333.66
2022-11-16T23:39:43.173Z,100324.88
2022-11-16T23:42:24.415Z,100328.13
2022-11-16T23:44:46.893Z,100330.03
2022-11-16T23:47:09.268Z,100329.25
2022-11-16T23:49:31.610Z,100325.72
2022-11-16T23:51:53.979Z,100332.00
2022-11-16T23:54:16.288Z,100326.28
2022-11-16T23:56:38.617Z,100329.53
2022-11-16T23:59:00.946Z,100328.19
